sensor_id;sensor_type;location;lat;lon;timestamp;pressure;altitude;pressure_sealevel;temperature;humidity
36378;BME280;22402;42.746;23.606;2022-08-25T02:48:00;93306.47;;;20.43;96.61
36378;BME280;22402;42.746;23.606;2022-08-25T02:52:55;93303.25;;;20.28;97.51
36378;BME280;22402;42.746;23.606;2022-08-25T02:55:21;93306.72;;;20.22;97.90
36378;BME280;22402;42.746;23.606;2022-08-25T02:57:46;93310.63;;;20.26;98.67
36378;BME280;22402;42.746;23.606;2022-08-25T03:00:15;93314.88;;;20.27;98.53
36378;BME280;22402;42.746;23.606;2022-08-25T03:02:41;93318.56;;;20.26;98.54
36378;BME280;22402;42.746;23.606;2022-08-25T03:05:08;93315.88;;;20.19;98.30
36378;BME280;22402;42.746;23.606;2022-08-25T03:07:35;93318.78;;;20.11;98.46
36378;BME280;22402;42.746;23.606;2022-08-25T03:10:07;93318.16;;;20.09;98.62
36378;BME280;22402;42.746;23.606;2022-08-25T03:12:34;93334.03;;;20.09;98.83
36378;BME280;22402;42.746;23.606;2022-08-25T03:14:59;93332.41;;;20.01;99.17
36378;BME280;22402;42.746;23.606;2022-08-25T03:17:25;93334.22;;;20.01;99.28
36378;BME280;22402;42.746;23.606;2022-08-25T03:19:50;93334.06;;;19.96;99.42
36378;BME280;22402;42.746;23.606;2022-08-25T03:22:15;93334.88;;;19.96;99.52
36378;BME280;22402;42.746;23.606;2022-08-25T03:24:41;93340.97;;;19.97;99.80
36378;BME280;22402;42.746;23.606;2022-08-25T03:27:06;93341.59;;;19.99;99.38
36378;BME280;22402;42.746;23.606;2022-08-25T03:29:32;93339.72;;;19.93;99.33
36378;BME280;22402;42.746;23.606;2022-08-25T03:31:59;93335.06;;;19.82;99.46
36378;BME280;22402;42.746;23.606;2022-08-25T03:34:28;93340.53;;;19.73;99.63
36378;BME280;22402;42.746;23.606;2022-08-25T03:36:55;93333.63;;;19.72;99.89
36378;BME280;22402;42.746;23.606;2022-08-25T03:39:22;93319.78;;;19.70;100.00
36378;BME280;22402;42.746;23.606;2022-08-25T03:41:49;93327.09;;;19.68;100.00
36378;BME280;22402;42.746;23.606;2022-08-25T03:44:15;93324.25;;;19.63;100.00
36378;BME280;22402;42.746;23.606;2022-08-25T03:46:46;93314.44;;;19.57;100.00
36378;BME280;22402;42.746;23.606;2022-08-25T03:49:17;93312.44;;;19.59;100.00
36378;BME280;22402;42.746;23.606;2022-08-25T03:51:46;93308.56;;;19.55;100.00
36378;BME280;22402;42.746;23.606;2022-08-25T03:54:17;93306.31;;;19.52;100.00
36378;BME280;22402;42.746;23.606;2022-08-25T03:56:42;93312.63;;;19.51;100.00
36378;BME280;22402;42.746;23.606;2022-08-25T03:59:08;93315.25;;;19.51;100.00
36378;BME280;22402;42.746;23.606;2022-08-25T04:01:37;93315.25;;;19.51;100.00
36378;BME280;22402;42.746;23.606;2022-08-25T04:04:04;93312.03;;;19.49;100.00
36378;BME280;22402;42.746;23.606;2022-08-25T04:06:29;93307.13;;;19.46;100.00
36378;BME280;22402;42.746;23.606;2022-08-25T04:08:55;93320.34;;;19.46;100.00
36378;BME280;22402;42.746;23.606;2022-08-25T04:11:21;93326.44;;;19.46;100.00
36378;BME280;22402;42.746;23.606;2022-08-25T04:13:47;93323.00;;;19.46;100.00
36378;BME280;22402;42.746;23.606;2022-08-25T04:16:19;93316.69;;;19.40;100.00
36378;BME280;22402;42.746;23.606;2022-08-25T04:18:45;93316.06;;;19.38;100.00
36378;BME280;22402;42.746;23.606;2022-08-25T04:21:12;93317.28;;;19.35;100.00
36378;BME280;22402;42.746;23.606;2022-08-25T04:23:39;93325.19;;;19.35;100.00
36378;BME280;22402;42.746;23.606;2022-08-25T04:26:14;93326.22;;;19.34;100.00
36378;BME280;22402;42.746;23.606;2022-08-25T04:28:40;93331.91;;;19.31;100.00
36378;BME280;22402;42.746;23.606;2022-08-25T04:31:09;93337.38;;;19.30;100.00
36378;BME280;22402;42.746;23.606;2022-08-25T04:33:36;93341.69;;;19.31;100.00
36378;BME280;22402;42.746;23.606;2022-08-25T04:36:02;93342.50;;;19.31;100.00
36378;BME280;22402;42.746;23.606;2022-08-25T04:38:28;93341.06;;;19.35;100.00
36378;BME280;22402;42.746;23.606;2022-08-25T04:41:01;93332.53;;;19.33;100.00
36378;BME280;22402;42.746;23.606;2022-08-25T04:43:29;93333.13;;;19.35;100.00
36378;BME280;22402;42.746;23.606;2022-08-25T04:45:54;93338.00;;;19.39;100.00
36378;BME280;22402;42.746;23.606;2022-08-25T04:48:20;93342.50;;;19.45;100.00
36378;BME280;22402;42.746;23.606;2022-08-25T04:50:46;93341.09;;;19.49;100.00
36378;BME280;22402;42.746;23.606;2022-08-25T04:53:11;93341.09;;;19.49;100.00
36378;BME280;22402;42.746;23.606;2022-08-25T04:55:45;93342.94;;;19.55;100.00
36378;BME280;22402;42.746;23.606;2022-08-25T04:58:11;93344.97;;;19.59;100.00
36378;BME280;22402;42.746;23.606;2022-08-25T05:00:38;93333.19;;;19.62;100.00
36378;BME280;22402;42.746;23.606;2022-08-25T05:03:04;93332.81;;;19.65;100.00
36378;BME280;22402;42.746;23.606;2022-08-25T05:05:30;93336.47;;;19.71;100.00
36378;BME280;22402;42.746;23.606;2022-08-25T05:07:56;93328.53;;;19.77;100.00
36378;BME280;22402;42.746;23.606;2022-08-25T05:10:21;93337.31;;;19.85;100.00
36378;BME280;22402;42.746;23.606;2022-08-25T05:12:47;93334.84;;;19.90;100.00
36378;BME280;22402;42.746;23.606;2022-08-25T05:15:12;93332.41;;;19.95;100.00
36378;BME280;22402;42.746;23.606;2022-08-25T05:17:37;93323.88;;;19.99;100.00
36378;BME280;22402;42.746;23.606;2022-08-25T05:20:03;93325.88;;;20.04;100.00
36378;BME280;22402;42.746;23.606;2022-08-25T05:22:29;93326.72;;;20.11;100.00
36378;BME280;22402;42.746;23.606;2022-08-25T05:24:54;93324.25;;;20.16;100.00
36378;BME280;22402;42.746;23.606;2022-08-25T05:27:19;93324.25;;;20.23;100.00
36378;BME280;22402;42.746;23.606;2022-08-25T05:29:45;93318.13;;;20.29;100.00
36378;BME280;22402;42.746;23.606;2022-08-25T05:32:10;93329.53;;;20.30;100.00
36378;BME280;22402;42.746;23.606;2022-08-25T05:34:35;93333.59;;;20.32;100.00
36378;BME280;22402;42.746;23.606;2022-08-25T05:37:01;93325.03;;;20.37;100.00
36378;BME280;22402;42.746;23.606;2022-08-25T05:39:26;93322.59;;;20.42;100.00
36378;BME280;22402;42.746;23.606;2022-08-25T05:41:51;93329.09;;;20.39;100.00
36378;BME280;22402;42.746;23.606;2022-08-25T05:44:17;93324.03;;;20.38;100.00
36378;BME280;22402;42.746;23.606;2022-08-25T05:46:42;93318.91;;;20.43;100.00
36378;BME280;22402;42.746;23.606;2022-08-25T05:49:07;93326.25;;;20.47;100.00
36378;BME280;22402;42.746;23.606;2022-08-25T05:51:33;93320.34;;;20.52;100.00
36378;BME280;22402;42.746;23.606;2022-08-25T05:53:58;93327.28;;;20.53;100.00
36378;BME280;22402;42.746;23.606;2022-08-25T05:56:23;93324.63;;;20.53;100.00
36378;BME280;22402;42.746;23.606;2022-08-25T05:58:49;93333.16;;;20.55;100.00
36378;BME280;22402;42.746;23.606;2022-08-25T06:01:26;93326.44;;;20.59;100.00
36378;BME280;22402;42.746;23.606;2022-08-25T06:03:52;93324.19;;;20.63;100.00
36378;BME280;22402;42.746;23.606;2022-08-25T06:06:17;93326.22;;;20.67;100.00
36378;BME280;22402;42.746;23.606;2022-08-25T06:08:43;93320.09;;;20.74;100.00
36378;BME280;22402;42.746;23.606;2022-08-25T06:11:10;93314.97;;;20.79;100.00
36378;BME280;22402;42.746;23.606;2022-08-25T06:13:39;93316.19;;;20.83;100.00
36378;BME280;22402;42.746;23.606;2022-08-25T06:16:05;93320.84;;;20.87;100.00
36378;BME280;22402;42.746;23.606;2022-08-25T06:18:30;93318.81;;;20.89;100.00
36378;BME280;22402;42.746;23.606;2022-08-25T06:20:56;93323.06;;;20.90;100.00
36378;BME280;22402;42.746;23.606;2022-08-25T06:23:21;93322.44;;;20.95;100.00
36378;BME280;22402;42.746;23.606;2022-08-25T06:25:51;93319.38;;;20.98;100.00
36378;BME280;22402;42.746;23.606;2022-08-25T06:28:17;93323.22;;;21.02;100.00
36378;BME280;22402;42.746;23.606;2022-08-25T06:30:43;93326.47;;;21.04;100.00
36378;BME280;22402;42.746;23.606;2022-08-25T06:33:08;93326.69;;;21.03;100.00
36378;BME280;22402;42.746;23.606;2022-08-25T06:35:34;93327.28;;;21.05;100.00
36378;BME280;22402;42.746;23.606;2022-08-25T06:37:59;93320.16;;;21.05;100.00
36378;BME280;22402;42.746;23.606;2022-08-25T06:40:25;93320.81;;;21.01;100.00
36378;BME280;22402;42.746;23.606;2022-08-25T06:42:50;93331.78;;;21.04;100.00
36378;BME280;22402;42.746;23.606;2022-08-25T06:45:16;93336.66;;;21.07;100.00
36378;BME280;22402;42.746;23.606;2022-08-25T06:47:42;93327.09;;;21.06;100.00
36378;BME280;22402;42.746;23.606;2022-08-25T06:50:07;93331.56;;;21.06;100.00
36378;BME280;22402;42.746;23.606;2022-08-25T06:52:33;93332.59;;;21.05;100.00
36378;BME280;22402;42.746;23.606;2022-08-25T06:54:58;93330.56;;;21.07;100.00
36378;BME280;22402;42.746;23.606;2022-08-25T06:57:24;93340.31;;;21.13;100.00
36378;BME280;22402;42.746;23.606;2022-08-25T06:59:49;93340.09;;;21.21;100.00
36378;BME280;22402;42.746;23.606;2022-08-25T07:02:15;93337.38;;;21.28;100.00
36378;BME280;22402;42.746;23.606;2022-08-25T07:04:40;93338.16;;;21.35;100.00
36378;BME280;22402;42.746;23.606;2022-08-25T07:07:06;93337.50;;;21.46;100.00
36378;BME280;22402;42.746;23.606;2022-08-25T07:09:31;93336.66;;;21.52;99.83
36378;BME280;22402;42.746;23.606;2022-08-25T07:11:57;93335.81;;;21.58;99.52
36378;BME280;22402;42.746;23.606;2022-08-25T07:14:23;93336.75;;;21.71;98.95
36378;BME280;22402;42.746;23.606;2022-08-25T07:16:48;93331.00;;;21.74;97.84
36378;BME280;22402;42.746;23.606;2022-08-25T07:19:14;93329.56;;;21.78;97.54
36378;BME280;22402;42.746;23.606;2022-08-25T07:21:41;93335.88;;;21.77;97.22
36378;BME280;22402;42.746;23.606;2022-08-25T07:24:09;93329.38;;;21.73;97.25
36378;BME280;22402;42.746;23.606;2022-08-25T07:26:35;93342.84;;;21.71;97.16
36378;BME280;22402;42.746;23.606;2022-08-25T07:29:13;93342.84;;;21.71;97.13
36378;BME280;22402;42.746;23.606;2022-08-25T07:31:39;93326.13;;;21.71;97.10
36378;BME280;22402;42.746;23.606;2022-08-25T07:34:06;93325.25;;;21.77;97.19
36378;BME280;22402;42.746;23.606;2022-08-25T07:36:32;93326.84;;;21.84;96.37
36378;BME280;22402;42.746;23.606;2022-08-25T07:38:58;93329.50;;;21.84;96.40
36378;BME280;22402;42.746;23.606;2022-08-25T07:41:24;93324.19;;;21.84;96.49
36378;BME280;22402;42.746;23.606;2022-08-25T07:43:50;93331.28;;;21.91;97.09
36378;BME280;22402;42.746;23.606;2022-08-25T07:46:15;93323.66;;;22.01;96.68
36378;BME280;22402;42.746;23.606;2022-08-25T07:48:41;93324.34;;;22.15;96.96
36378;BME280;22402;42.746;23.606;2022-08-25T07:51:11;93322.38;;;22.35;97.11
36378;BME280;22402;42.746;23.606;2022-08-25T07:53:37;93315.19;;;22.61;95.91
36378;BME280;22402;42.746;23.606;2022-08-25T07:56:07;93320.63;;;22.84;94.60
36378;BME280;22402;42.746;23.606;2022-08-25T07:58:33;93317.09;;;23.09;93.04
36378;BME280;22402;42.746;23.606;2022-08-25T08:00:58;93316.75;;;23.35;90.45
36378;BME280;22402;42.746;23.606;2022-08-25T08:03:24;93306.19;;;23.59;89.27
36378;BME280;22402;42.746;23.606;2022-08-25T08:05:49;93298.16;;;23.77;84.35
36378;BME280;22402;42.746;23.606;2022-08-25T08:08:15;93303.13;;;23.85;82.16
36378;BME280;22402;42.746;23.606;2022-08-25T08:10:41;93304.81;;;23.98;84.14
36378;BME280;22402;42.746;23.606;2022-08-25T08:13:07;93305.75;;;24.04;80.91
36378;BME280;22402;42.746;23.606;2022-08-25T08:15:33;93300.06;;;24.12;78.02
36378;BME280;22402;42.746;23.606;2022-08-25T08:17:59;93299.59;;;24.27;73.96
36378;BME280;22402;42.746;23.606;2022-08-25T08:20:24;93295.91;;;24.40;73.57
36378;BME280;22402;42.746;23.606;2022-08-25T08:22:50;93302.28;;;24.50;70.42
36378;BME280;22402;42.746;23.606;2022-08-25T08:25:16;93299.38;;;24.64;71.30
36378;BME280;22402;42.746;23.606;2022-08-25T08:27:41;93292.06;;;24.71;71.96
36378;BME280;22402;42.746;23.606;2022-08-25T08:30:07;93295.31;;;24.73;72.06
36378;BME280;22402;42.746;23.606;2022-08-25T08:32:32;93293.34;;;24.68;69.61
36378;BME280;22402;42.746;23.606;2022-08-25T08:34:58;93281.66;;;24.69;68.65
36378;BME280;22402;42.746;23.606;2022-08-25T08:37:23;93294.25;;;24.86;69.73
36378;BME280;22402;42.746;23.606;2022-08-25T08:39:48;93292.13;;;24.99;71.74
36378;BME280;22402;42.746;23.606;2022-08-25T08:58:03;93294.50;;;25.24;65.12
36378;BME280;22402;42.746;23.606;2022-08-25T09:00:30;93286.16;;;25.21;65.68
36378;BME280;22402;42.746;23.606;2022-08-25T09:03:07;93286.03;;;25.28;67.31
36378;BME280;22402;42.746;23.606;2022-08-25T09:05:46;93287.19;;;25.32;65.40
36378;BME280;22402;42.746;23.606;2022-08-25T09:08:14;93289.13;;;25.36;65.80
36378;BME280;22402;42.746;23.606;2022-08-25T09:11:02;93277.66;;;25.36;66.47
36378;BME280;22402;42.746;23.606;2022-08-25T09:16:31;93288.84;;;25.50;65.69
36378;BME280;22402;42.746;23.606;2022-08-25T09:19:13;93289.06;;;25.48;67.62
36378;BME280;22402;42.746;23.606;2022-08-25T09:29:34;93285.53;;;25.31;69.20
36378;BME280;22402;42.746;23.606;2022-08-25T09:32:06;93293.00;;;25.29;69.15
36378;BME280;22402;42.746;23.606;2022-08-25T09:34:32;93289.97;;;25.25;68.47
36378;BME280;22402;42.746;23.606;2022-08-25T09:36:59;93284.19;;;25.16;68.65
36378;BME280;22402;42.746;23.606;2022-08-25T09:39:24;93283.84;;;25.13;68.91
36378;BME280;22402;42.746;23.606;2022-08-25T09:41:53;93281.91;;;25.08;68.68
36378;BME280;22402;42.746;23.606;2022-08-25T09:44:43;93285.38;;;25.09;68.93
36378;BME280;22402;42.746;23.606;2022-08-25T09:47:18;93280.41;;;25.00;67.96
36378;BME280;22402;42.746;23.606;2022-08-25T09:49:47;93285.88;;;24.94;67.82
36378;BME280;22402;42.746;23.606;2022-08-25T09:54:55;93281.59;;;24.93;68.08
36378;BME280;22402;42.746;23.606;2022-08-25T09:59:55;93288.75;;;25.04;65.94
36378;BME280;22402;42.746;23.606;2022-08-25T10:02:24;93277.84;;;25.06;65.66
36378;BME280;22402;42.746;23.606;2022-08-25T10:04:50;93282.59;;;25.15;63.97
36378;BME280;22402;42.746;23.606;2022-08-25T10:07:35;93269.50;;;25.14;62.93
36378;BME280;22402;42.746;23.606;2022-08-25T10:10:21;93279.44;;;25.18;65.11
36378;BME280;22402;42.746;23.606;2022-08-25T10:12:48;93261.31;;;25.32;65.12
36378;BME280;22402;42.746;23.606;2022-08-25T10:15:24;93259.13;;;25.46;62.40
36378;BME280;22402;42.746;23.606;2022-08-25T10:17:49;93259.91;;;25.58;61.28
36378;BME280;22402;42.746;23.606;2022-08-25T10:20:27;93264.13;;;25.71;61.64
36378;BME280;22402;42.746;23.606;2022-08-25T10:23:10;93267.59;;;25.72;61.05
36378;BME280;22402;42.746;23.606;2022-08-25T10:25:46;93262.84;;;25.74;61.34
36378;BME280;22402;42.746;23.606;2022-08-25T10:28:45;93256.53;;;25.80;61.12
36378;BME280;22402;42.746;23.606;2022-08-25T10:31:35;93249.75;;;25.89;60.58
36378;BME280;22402;42.746;23.606;2022-08-25T10:36:55;93235.03;;;26.03;62.10
36378;BME280;22402;42.746;23.606;2022-08-25T10:42:11;93245.84;;;26.30;62.33
36378;BME280;22402;42.746;23.606;2022-08-25T10:50:04;93249.75;;;26.62;57.56
36378;BME280;22402;42.746;23.606;2022-08-25T10:55:20;93233.19;;;26.59;57.40
36378;BME280;22402;42.746;23.606;2022-08-25T10:57:57;93238.53;;;26.59;58.82
36378;BME280;22402;42.746;23.606;2022-08-25T11:00:31;93248.28;;;26.71;57.96
36378;BME280;22402;42.746;23.606;2022-08-25T11:03:20;93238.56;;;26.65;56.53
36378;BME280;22402;42.746;23.606;2022-08-25T11:05:59;93233.97;;;26.60;55.81
36378;BME280;22402;42.746;23.606;2022-08-25T11:08:33;93242.88;;;26.49;58.75
36378;BME280;22402;42.746;23.606;2022-08-25T11:14:00;93231.88;;;26.45;60.69
36378;BME280;22402;42.746;23.606;2022-08-25T11:16:42;93229.63;;;26.54;59.62
36378;BME280;22402;42.746;23.606;2022-08-25T11:21:46;93229.38;;;26.55;58.95
36378;BME280;22402;42.746;23.606;2022-08-25T11:27:19;93218.16;;;26.58;58.40
36378;BME280;22402;42.746;23.606;2022-08-25T11:29:55;93207.28;;;26.65;58.72
36378;BME280;22402;42.746;23.606;2022-08-25T11:32:23;93208.16;;;26.71;58.93
36378;BME280;22402;42.746;23.606;2022-08-25T11:34:49;93204.16;;;26.68;58.09
36378;BME280;22402;42.746;23.606;2022-08-25T11:37:25;93195.34;;;26.73;58.40
36378;BME280;22402;42.746;23.606;2022-08-25T11:42:53;93184.81;;;26.83;58.41
36378;BME280;22402;42.746;23.606;2022-08-25T11:51:03;93186.66;;;27.10;55.38
36378;BME280;22402;42.746;23.606;2022-08-25T11:53:32;93181.97;;;27.17;57.90
36378;BME280;22402;42.746;23.606;2022-08-25T11:56:02;93193.88;;;27.31;56.12
36378;BME280;22402;42.746;23.606;2022-08-25T11:58:48;93185.94;;;27.41;54.76
36378;BME280;22402;42.746;23.606;2022-08-25T12:09:32;93184.53;;;27.66;55.29
36378;BME280;22402;42.746;23.606;2022-08-25T12:12:31;93181.66;;;27.72;55.40
36378;BME280;22402;42.746;23.606;2022-08-25T12:18:11;93191.41;;;27.84;55.83
36378;BME280;22402;42.746;23.606;2022-08-25T12:23:31;93185.19;;;27.78;54.83
36378;BME280;22402;42.746;23.606;2022-08-25T12:26:01;93187.03;;;27.78;54.11
36378;BME280;22402;42.746;23.606;2022-08-25T12:28:50;93180.31;;;27.75;52.92
36378;BME280;22402;42.746;23.606;2022-08-25T12:31:32;93173.88;;;27.71;55.12
36378;BME280;22402;42.746;23.606;2022-08-25T12:34:08;93185.38;;;27.66;54.79
36378;BME280;22402;42.746;23.606;2022-08-25T12:36:37;93174.66;;;27.66;54.68
36378;BME280;22402;42.746;23.606;2022-08-25T12:39:17;93184.84;;;27.69;55.15
36378;BME280;22402;42.746;23.606;2022-08-25T12:41:53;93185.16;;;27.73;54.41
36378;BME280;22402;42.746;23.606;2022-08-25T12:44:41;93188.84;;;27.67;55.01
36378;BME280;22402;42.746;23.606;2022-08-25T12:47:13;93185.03;;;27.63;54.74
36378;BME280;22402;42.746;23.606;2022-08-25T12:49:49;93189.81;;;27.56;55.15
36378;BME280;22402;42.746;23.606;2022-08-25T12:52:22;93175.00;;;27.48;55.88
36378;BME280;22402;42.746;23.606;2022-08-25T13:00:09;93183.81;;;27.43;54.59
36378;BME280;22402;42.746;23.606;2022-08-25T13:08:00;93183.56;;;27.45;54.20
36378;BME280;22402;42.746;23.606;2022-08-25T13:13:15;93178.22;;;27.18;54.91
36378;BME280;22402;42.746;23.606;2022-08-25T13:16:03;93176.53;;;27.12;54.98
36378;BME280;22402;42.746;23.606;2022-08-25T13:18:31;93164.88;;;26.96;54.43
36378;BME280;22402;42.746;23.606;2022-08-25T13:23:35;93175.41;;;26.80;54.61
36378;BME280;22402;42.746;23.606;2022-08-25T13:26:02;93177.41;;;26.68;55.22
36378;BME280;22402;42.746;23.606;2022-08-25T13:28:30;93177.88;;;26.65;54.95
36378;BME280;22402;42.746;23.606;2022-08-25T13:31:07;93178.38;;;26.62;55.36
36378;BME280;22402;42.746;23.606;2022-08-25T13:33:36;93177.72;;;26.72;55.18
36378;BME280;22402;42.746;23.606;2022-08-25T13:36:03;93184.47;;;26.79;54.87
36378;BME280;22402;42.746;23.606;2022-08-25T13:38:28;93190.19;;;26.88;53.85
36378;BME280;22402;42.746;23.606;2022-08-25T13:41:02;93189.16;;;26.89;53.95
36378;BME280;22402;42.746;23.606;2022-08-25T13:43:27;93183.47;;;26.86;54.28
36378;BME280;22402;42.746;23.606;2022-08-25T13:45:53;93188.22;;;26.78;54.20
36378;BME280;22402;42.746;23.606;2022-08-25T13:48:39;93191.00;;;26.67;54.56
36378;BME280;22402;42.746;23.606;2022-08-25T13:51:09;93181.81;;;26.57;54.92
36378;BME280;22402;42.746;23.606;2022-08-25T13:53:35;93185.16;;;26.48;54.96
36378;BME280;22402;42.746;23.606;2022-08-25T13:56:01;93182.13;;;26.44;55.03
36378;BME280;22402;42.746;23.606;2022-08-25T13:58:33;93179.41;;;26.39;55.78
36378;BME280;22402;42.746;23.606;2022-08-25T14:03:41;93169.88;;;26.26;55.10
36378;BME280;22402;42.746;23.606;2022-08-25T14:11:14;93167.25;;;26.48;55.65
36378;BME280;22402;42.746;23.606;2022-08-25T14:14:07;93164.50;;;26.65;54.68
36378;BME280;22402;42.746;23.606;2022-08-25T14:16:38;93161.38;;;26.68;54.94
36378;BME280;22402;42.746;23.606;2022-08-25T14:19:11;93165.38;;;26.71;53.80
36378;BME280;22402;42.746;23.606;2022-08-25T14:21:39;93156.31;;;26.72;52.83
36378;BME280;22402;42.746;23.606;2022-08-25T14:24:04;93171.50;;;26.66;52.54
36378;BME280;22402;42.746;23.606;2022-08-25T14:26:29;93184.22;;;26.59;53.13
36378;BME280;22402;42.746;23.606;2022-08-25T14:28:55;93181.22;;;26.50;52.58
36378;BME280;22402;42.746;23.606;2022-08-25T14:31:28;93175.69;;;26.40;53.75
36378;BME280;22402;42.746;23.606;2022-08-25T14:33:59;93174.06;;;26.39;53.69
36378;BME280;22402;42.746;23.606;2022-08-25T14:36:28;93158.28;;;26.37;54.28
36378;BME280;22402;42.746;23.606;2022-08-25T14:38:53;93156.88;;;26.30;53.71
36378;BME280;22402;42.746;23.606;2022-08-25T14:41:19;93163.53;;;26.32;53.81
36378;BME280;22402;42.746;23.606;2022-08-25T14:43:44;93165.69;;;26.30;54.39
36378;BME280;22402;42.746;23.606;2022-08-25T14:46:20;93159.47;;;26.25;54.67
36378;BME280;22402;42.746;23.606;2022-08-25T14:48:49;93155.69;;;26.21;54.97
36378;BME280;22402;42.746;23.606;2022-08-25T14:51:15;93160.75;;;26.22;55.66
36378;BME280;22402;42.746;23.606;2022-08-25T14:53:41;93154.34;;;26.23;55.21
36378;BME280;22402;42.746;23.606;2022-08-25T14:56:07;93159.47;;;26.25;54.48
36378;BME280;22402;42.746;23.606;2022-08-25T14:58:33;93160.19;;;26.20;55.07
36378;BME280;22402;42.746;23.606;2022-08-25T15:00:59;93151.28;;;26.14;55.58
36378;BME280;22402;42.746;23.606;2022-08-25T15:03:29;93156.41;;;26.16;55.60
36378;BME280;22402;42.746;23.606;2022-08-25T15:05:54;93156.31;;;26.11;54.91
36378;BME280;22402;42.746;23.606;2022-08-25T15:08:20;93160.25;;;26.03;55.33
36378;BME280;22402;42.746;23.606;2022-08-25T15:10:45;93165.25;;;26.00;55.90
36378;BME280;22402;42.746;23.606;2022-08-25T15:13:11;93169.97;;;25.92;55.67
36378;BME280;22402;42.746;23.606;2022-08-25T15:15:38;93168.59;;;25.90;56.37
36378;BME280;22402;42.746;23.606;2022-08-25T15:18:04;93155.28;;;25.78;56.78
36378;BME280;22402;42.746;23.606;2022-08-25T15:20:29;93155.56;;;25.77;56.62
36378;BME280;22402;42.746;23.606;2022-08-25T15:22:55;93171.00;;;25.75;57.48
36378;BME280;22402;42.746;23.606;2022-08-25T15:25:20;93167.53;;;25.74;57.19
36378;BME280;22402;42.746;23.606;2022-08-25T15:27:45;93172.28;;;25.72;57.42
36378;BME280;22402;42.746;23.606;2022-08-25T15:30:11;93168.91;;;25.77;56.90
36378;BME280;22402;42.746;23.606;2022-08-25T15:32:37;93179.00;;;25.75;57.61
36378;BME280;22402;42.746;23.606;2022-08-25T15:35:02;93169.94;;;25.76;57.12
36378;BME280;22402;42.746;23.606;2022-08-25T15:37:27;93179.28;;;25.73;57.83
36378;BME280;22402;42.746;23.606;2022-08-25T15:39:53;93172.56;;;25.71;57.75
36378;BME280;22402;42.746;23.606;2022-08-25T15:42:19;93169.31;;;25.68;56.96
36378;BME280;22402;42.746;23.606;2022-08-25T15:44:44;93167.13;;;25.65;57.59
36378;BME280;22402;42.746;23.606;2022-08-25T15:47:10;93168.69;;;25.61;57.86
36378;BME280;22402;42.746;23.606;2022-08-25T15:49:35;93156.31;;;25.55;57.81
36378;BME280;22402;42.746;23.606;2022-08-25T15:52:00;93160.50;;;25.51;58.50
36378;BME280;22402;42.746;23.606;2022-08-25T15:54:27;93147.63;;;25.48;58.12
36378;BME280;22402;42.746;23.606;2022-08-25T15:56:54;93152.06;;;25.42;58.49
36378;BME280;22402;42.746;23.606;2022-08-25T15:59:20;93163.00;;;25.41;58.87
36378;BME280;22402;42.746;23.606;2022-08-25T16:01:45;93156.50;;;25.37;58.92
36378;BME280;22402;42.746;23.606;2022-08-25T16:04:10;93156.34;;;25.27;59.58
36378;BME280;22402;42.746;23.606;2022-08-25T16:06:36;93155.56;;;25.26;59.77
36378;BME280;22402;42.746;23.606;2022-08-25T16:09:03;93149.66;;;25.24;59.75
36378;BME280;22402;42.746;23.606;2022-08-25T16:11:30;93149.91;;;25.22;60.27
36378;BME280;22402;42.746;23.606;2022-08-25T16:13:56;93144.22;;;25.19;60.13
36378;BME280;22402;42.746;23.606;2022-08-25T16:16:24;93149.53;;;25.19;60.49
36378;BME280;22402;42.746;23.606;2022-08-25T16:18:50;93148.66;;;25.13;60.58
36378;BME280;22402;42.746;23.606;2022-08-25T16:21:19;93149.09;;;25.10;60.93
36378;BME280;22402;42.746;23.606;2022-08-25T16:23:45;93154.44;;;25.10;61.13
36378;BME280;22402;42.746;23.606;2022-08-25T16:26:11;93155.75;;;25.08;60.87
36378;BME280;22402;42.746;23.606;2022-08-25T16:28:38;93154.84;;;25.02;62.18
36378;BME280;22402;42.746;23.606;2022-08-25T16:31:04;93149.41;;;24.97;61.98
36378;BME280;22402;42.746;23.606;2022-08-25T16:33:30;93157.91;;;24.94;62.45
36378;BME280;22402;42.746;23.606;2022-08-25T16:36:13;93158.38;;;24.91;62.11
36378;BME280;22402;42.746;23.606;2022-08-25T16:38:39;93156.19;;;24.88;62.46
36378;BME280;22402;42.746;23.606;2022-08-25T16:41:11;93181.13;;;24.82;62.95
36378;BME280;22402;42.746;23.606;2022-08-25T16:43:37;93176.03;;;24.80;63.57
36378;BME280;22402;42.746;23.606;2022-08-25T16:46:05;93183.38;;;24.73;63.74
36378;BME280;22402;42.746;23.606;2022-08-25T16:48:31;93188.84;;;24.66;63.96
36378;BME280;22402;42.746;23.606;2022-08-25T16:50:57;93188.72;;;24.61;64.42
36378;BME280;22402;42.746;23.606;2022-08-25T16:53:23;93187.22;;;24.53;64.36
36378;BME280;22402;42.746;23.606;2022-08-25T16:55:48;93191.16;;;24.51;64.30
36378;BME280;22402;42.746;23.606;2022-08-25T16:58:13;93202.31;;;24.48;65.47
36378;BME280;22402;42.746;23.606;2022-08-25T17:00:39;93202.41;;;24.41;65.84
36378;BME280;22402;42.746;23.606;2022-08-25T17:03:05;93198.34;;;24.39;65.64
36378;BME280;22402;42.746;23.606;2022-08-25T17:05:31;93202.53;;;24.34;66.67
36378;BME280;22402;42.746;23.606;2022-08-25T17:08:01;93208.34;;;24.31;67.39
36378;BME280;22402;42.746;23.606;2022-08-25T17:10:26;93210.09;;;24.26;67.35
36378;BME280;22402;42.746;23.606;2022-08-25T17:12:51;93211.00;;;24.20;67.48
36378;BME280;22402;42.746;23.606;2022-08-25T17:15:17;93217.28;;;24.14;67.63
36378;BME280;22402;42.746;23.606;2022-08-25T17:17:42;93208.03;;;24.04;68.07
36378;BME280;22402;42.746;23.606;2022-08-25T17:20:08;93201.66;;;23.94;68.90
36378;BME280;22402;42.746;23.606;2022-08-25T17:22:33;93196.91;;;23.84;68.71
36378;BME280;22402;42.746;23.606;2022-08-25T17:24:58;93205.56;;;23.79;68.78